createdAt,value
2019-01-24T00:00:15.171Z,20.237
2019-01-24T00:03:15.106Z,10.975
2019-01-24T00:06:15.663Z,15.812
2019-01-24T00:09:20.435Z,18.400
2019-01-24T00:12:15.863Z,13.387
2019-01-24T00:15:15.182Z,16.175
2019-01-24T00:18:15.655Z,26.425
2019-01-24T00:21:15.330Z,18.475
2019-01-24T00:24:15.861Z,19.037
2019-01-24T00:27:15.300Z,7.875
2019-01-24T00:30:15.497Z,12.275
2019-01-24T00:33:15.826Z,15.188
2019-01-24T00:36:15.358Z,12.387
2019-01-24T00:39:15.277Z,9.562
2019-01-24T00:42:15.525Z,8.875
2019-01-24T00:45:14.951Z,15.788
2019-01-24T00:48:15.344Z,14.287
2019-01-24T00:51:15.719Z,9.888
2019-01-24T00:54:15.085Z,19.688
2019-01-24T00:57:15.826Z,12.875
2019-01-24T01:00:15.044Z,11.088
2019-01-24T01:03:15.188Z,9.588
2019-01-24T01:06:15.816Z,12.587
2019-01-24T01:09:15.274Z,9.000
2019-01-24T01:12:15.417Z,12.562
2019-01-24T01:15:15.811Z,12.950
2019-01-24T01:18:15.179Z,21.275
2019-01-24T01:21:15.665Z,15.713
2019-01-24T01:24:14.914Z,13.113
2019-01-24T01:27:15.677Z,20.663
2019-01-24T01:30:15.308Z,11.462
2019-01-24T01:33:15.696Z,16.000
2019-01-24T01:36:14.951Z,21.225
2019-01-24T01:39:15.423Z,13.863
2019-01-24T01:42:15.687Z,22.463
2019-01-24T01:45:15.087Z,15.100
2019-01-24T01:48:15.590Z,16.863
2019-01-24T01:51:14.976Z,18.150
2019-01-24T01:54:15.253Z,9.712
2019-01-24T01:57:15.555Z,15.112
2019-01-24T02:00:15.775Z,30.163
2019-01-24T02:03:15.285Z,11.900
2019-01-24T02:06:14.952Z,18.638
2019-01-24T02:09:15.733Z,28.538
2019-01-24T02:12:15.314Z,19.950
2019-01-24T02:15:15.623Z,12.863
2019-01-24T02:18:15.198Z,28.875
2019-01-24T02:21:15.550Z,16.337
2019-01-24T02:24:15.891Z,26.500
2019-01-24T02:27:15.447Z,20.837
2019-01-24T02:30:15.793Z,17.087
2019-01-24T02:33:15.718Z,14.350
2019-01-24T02:36:15.695Z,17.000
2019-01-24T02:39:15.003Z,9.938
2019-01-24T02:42:15.533Z,13.075
2019-01-24T02:45:14.953Z,10.625
2019-01-24T02:48:15.333Z,14.938
2019-01-24T02:51:15.619Z,17.675
2019-01-24T02:54:15.279Z,12.462
2019-01-24T02:57:15.627Z,26.175
2019-01-24T03:00:15.001Z,14.025
2019-01-24T03:03:15.266Z,16.875
2019-01-24T03:06:15.679Z,23.538
2019-01-24T03:09:15.292Z,20.788
2019-01-24T03:12:14.989Z,25.262
2019-01-24T03:15:15.381Z,18.888
2019-01-24T03:18:15.799Z,14.387
2019-01-24T03:21:15.112Z,11.600
2019-01-24T03:24:15.409Z,12.463
2019-01-24T03:27:15.019Z,5.638
2019-01-24T03:30:15.338Z,12.800
2019-01-24T03:33:15.689Z,20.000
2019-01-24T03:36:15.640Z,12.425
2019-01-24T03:39:15.177Z,13.500
2019-01-24T03:42:15.751Z,9.900
2019-01-24T03:45:15.260Z,11.625
2019-01-24T03:48:15.585Z,13.938
2019-01-24T03:51:15.028Z,16.238
2019-01-24T03:54:15.426Z,15.300
2019-01-24T03:57:15.862Z,12.400
2019-01-24T04:00:15.352Z,18.975
2019-01-24T04:03:15.479Z,11.337
2019-01-24T04:06:15.246Z,16.500
2019-01-24T04:09:15.645Z,19.400
2019-01-24T04:12:15.019Z,14.700
2019-01-24T04:15:15.318Z,16.150
2019-01-24T04:18:15.122Z,19.988
2019-01-24T04:21:15.439Z,18.725
2019-01-24T04:24:15.153Z,8.475
2019-01-24T04:27:15.684Z,10.412
2019-01-24T04:30:15.301Z,16.837
2019-01-24T04:33:14.931Z,8.487
2019-01-24T04:36:15.493Z,14.050
2019-01-24T04:39:15.371Z,19.988
2019-01-24T04:42:15.678Z,18.525
2019-01-24T04:45:15.236Z,9.712
2019-01-24T04:48:15.450Z,10.900
2019-01-24T04:51:15.692Z,8.238
2019-01-24T04:54:15.175Z,14.875
2019-01-24T04:57:15.882Z,13.375
2019-01-24T05:00:15.145Z,13.425
2019-01-24T05:03:16.223Z,16.325
2019-01-24T05:06:15.768Z,17.662
2019-01-24T05:09:15.245Z,7.612
2019-01-24T05:12:20.426Z,19.538
2019-01-24T05:15:15.731Z,12.925
2019-01-24T05:18:15.384Z,14.087
2019-01-24T05:21:15.735Z,14.250
2019-01-24T05:24:20.260Z,28.837
2019-01-24T05:27:16.611Z,25.750
2019-01-24T05:30:15.299Z,16.100
2019-01-24T05:33:16.865Z,13.262
2019-01-24T05:36:15.400Z,17.938
2019-01-24T05:39:14.941Z,18.225
2019-01-24T05:42:15.558Z,25.950
2019-01-24T05:45:14.998Z,17.125
2019-01-24T05:48:15.492Z,24.962
2019-01-24T05:51:14.967Z,17.050
2019-01-24T05:54:15.293Z,11.650
2019-01-24T05:57:15.377Z,21.113
2019-01-24T06:00:16.423Z,14.050
2019-01-24T06:03:15.457Z,14.588
2019-01-24T06:06:15.108Z,14.575
2019-01-24T06:09:15.700Z,13.225
2019-01-24T06:12:15.079Z,22.775
2019-01-24T06:15:15.792Z,15.750
2019-01-24T06:18:15.647Z,12.400
2019-01-24T06:21:15.358Z,8.850
2019-01-24T06:24:15.828Z,11.688
2019-01-24T06:27:15.304Z,27.637
2019-01-24T06:30:15.869Z,30.238
2019-01-24T06:33:15.722Z,20.913
2019-01-24T06:36:15.296Z,19.387
2019-01-24T06:39:15.858Z,27.888
2019-01-24T06:42:15.556Z,27.888
2019-01-24T06:45:15.272Z,15.688
2019-01-24T06:48:15.058Z,31.888
2019-01-24T06:51:15.764Z,27.038
2019-01-24T06:54:15.324Z,26.988
2019-01-24T06:57:15.870Z,26.575
2019-01-24T07:00:15.322Z,12.550
2019-01-24T07:03:15.931Z,23.088
2019-01-24T07:06:15.628Z,25.762
2019-01-24T07:09:15.241Z,30.188
2019-01-24T07:12:15.809Z,31.525
2019-01-24T07:15:15.143Z,33.888
2019-01-24T07:18:15.682Z,25.637
2019-01-24T07:21:15.102Z,37.400
2019-01-24T07:24:15.665Z,30.638
2019-01-24T07:27:15.422Z,23.750
2019-01-24T07:30:15.794Z,43.712
2019-01-24T07:33:15.256Z,25.650
2019-01-24T07:36:15.584Z,32.975
2019-01-24T07:39:15.067Z,24.975
2019-01-24T07:42:15.498Z,48.087
2019-01-24T07:45:15.919Z,28.462
2019-01-24T07:48:15.297Z,30.438
2019-01-24T07:51:15.766Z,25.288
2019-01-24T07:54:15.764Z,19.825
2019-01-24T07:57:15.388Z,32.087
2019-01-24T08:00:15.664Z,29.262
2019-01-24T08:03:15.373Z,23.938
2019-01-24T08:06:15.750Z,26.087
2019-01-24T08:09:15.375Z,42.675
2019-01-24T08:12:15.701Z,41.100
2019-01-24T08:15:15.234Z,30.087
2019-01-24T08:18:15.796Z,35.325
2019-01-24T08:21:15.164Z,34.350
2019-01-24T08:24:15.647Z,22.525
2019-01-24T08:27:15.280Z,25.400
2019-01-24T08:30:15.613Z,40.413
2019-01-24T08:33:15.050Z,35.438
2019-01-24T08:36:15.778Z,14.938
2019-01-24T08:39:15.162Z,25.425
2019-01-24T08:42:15.131Z,51.925
2019-01-24T08:45:15.506Z,47.087
2019-01-24T08:48:15.917Z,48.600
2019-01-24T08:51:15.438Z,23.975
2019-01-24T08:54:15.959Z,26.562
2019-01-24T08:57:15.335Z,33.513
2019-01-24T09:00:15.677Z,27.537
2019-01-24T09:03:15.300Z,25.363
2019-01-24T09:06:22.367Z,29.338
2019-01-24T09:09:15.235Z,31.237
2019-01-24T09:12:15.496Z,32.775
2019-01-24T09:15:15.148Z,23.825
2019-01-24T09:18:15.910Z,29.738
2019-01-24T09:21:15.372Z,26.125
2019-01-24T09:24:14.992Z,36.600
2019-01-24T09:27:15.256Z,27.975
2019-01-24T09:30:15.791Z,31.300
2019-01-24T09:33:15.876Z,27.875
2019-01-24T09:36:15.259Z,19.438
2019-01-24T09:39:15.887Z,19.525
2019-01-24T09:42:15.341Z,18.075
2019-01-24T09:45:15.876Z,19.525
2019-01-24T09:48:15.079Z,18.487
2019-01-24T09:51:15.561Z,15.700
2019-01-24T09:54:15.285Z,37.163
2019-01-24T09:57:15.628Z,25.488
2019-01-24T10:00:15.707Z,25.713
2019-01-24T10:03:15.310Z,40.100
2019-01-24T10:06:14.863Z,23.138
2019-01-24T10:09:15.627Z,22.825
2019-01-24T10:12:15.006Z,25.100
2019-01-24T10:15:15.613Z,32.538
2019-01-24T10:18:21.624Z,26.013
2019-01-24T10:21:15.602Z,32.600
2019-01-24T10:24:15.015Z,17.600
2019-01-24T10:27:15.470Z,13.900
2019-01-24T10:30:15.794Z,22.350
2019-01-24T10:33:15.487Z,19.975
2019-01-24T10:36:14.871Z,17.312
2019-01-24T10:39:15.288Z,29.675
2019-01-24T10:42:15.839Z,15.913
2019-01-24T10:45:15.421Z,18.163
2019-01-24T10:48:14.868Z,32.850
2019-01-24T10:51:15.353Z,16.138
2019-01-24T10:54:15.713Z,9.988
2019-01-24T10:57:15.461Z,26.663
2019-01-24T11:00:15.077Z,18.863
2019-01-24T11:03:15.089Z,20.150
2019-01-24T11:06:15.501Z,13.588
2019-01-24T11:09:15.005Z,8.650
2019-01-24T11:12:15.539Z,16.375
2019-01-24T11:15:15.058Z,17.400
2019-01-24T11:18:15.523Z,14.400
2019-01-24T11:21:15.956Z,21.350
2019-01-24T11:24:15.533Z,17.775
2019-01-24T11:27:14.999Z,10.688
2019-01-24T11:30:15.430Z,7.950
2019-01-24T11:33:15.231Z,7.937
2019-01-24T11:36:15.497Z,11.712
2019-01-24T11:39:14.956Z,14.638
2019-01-24T11:42:15.324Z,13.425
2019-01-24T11:45:15.722Z,9.438
2019-01-24T11:48:15.018Z,17.500
2019-01-24T11:51:15.274Z,9.713
2019-01-24T11:54:15.574Z,14.950
2019-01-24T11:57:15.012Z,6.238
2019-01-24T12:00:15.591Z,8.112
2019-01-24T12:03:15.884Z,9.550
2019-01-24T12:06:15.385Z,10.188
2019-01-24T12:09:15.961Z,5.875
2019-01-24T12:12:15.400Z,6.875
2019-01-24T12:15:15.844Z,6.300
2019-01-24T12:18:15.792Z,17.025
2019-01-24T12:21:15.286Z,9.912
2019-01-24T12:24:15.203Z,20.538
2019-01-24T12:27:15.726Z,14.713
2019-01-24T12:30:15.373Z,12.113
2019-01-24T12:33:14.930Z,15.538
2019-01-24T12:36:15.249Z,10.688
2019-01-24T12:39:15.631Z,10.625
2019-01-24T12:42:14.831Z,16.475
2019-01-24T12:45:15.208Z,7.375
2019-01-24T12:48:15.374Z,20.100
2019-01-24T12:51:15.792Z,16.387
2019-01-24T12:54:15.115Z,21.300
2019-01-24T12:57:15.612Z,8.475
2019-01-24T13:00:15.119Z,12.450
2019-01-24T13:03:15.942Z,8.662
2019-01-24T13:06:15.391Z,28.050
2019-01-24T13:09:15.786Z,14.750
2019-01-24T13:12:15.062Z,16.962
2019-01-24T13:15:15.354Z,18.650
2019-01-24T13:18:15.508Z,6.188
2019-01-24T13:21:15.070Z,10.275
2019-01-24T13:24:15.548Z,13.050
2019-01-24T13:27:15.804Z,15.625
2019-01-24T13:30:15.326Z,14.500
2019-01-24T13:33:15.258Z,2.475
2019-01-24T13:36:15.604Z,16.750
2019-01-24T13:39:15.060Z,16.338
2019-01-24T13:42:15.508Z,10.288
2019-01-24T13:45:14.865Z,11.413
2019-01-24T13:48:15.138Z,12.838
2019-01-24T13:51:15.589Z,16.113
2019-01-24T13:54:14.912Z,9.287
2019-01-24T13:57:15.385Z,9.600
2019-01-24T14:00:15.830Z,11.100
2019-01-24T14:03:15.034Z,15.062
2019-01-24T14:06:15.841Z,11.750
2019-01-24T14:09:15.312Z,8.213
2019-01-24T14:12:15.782Z,4.475
2019-01-24T14:15:15.537Z,6.375
2019-01-24T14:18:15.307Z,11.238
2019-01-24T14:21:15.700Z,5.725
2019-01-24T14:24:15.163Z,14.887
2019-01-24T14:27:15.376Z,5.050
2019-01-24T14:30:14.882Z,7.100
2019-01-24T14:33:15.382Z,8.100
2019-01-24T14:36:15.423Z,16.663
2019-01-24T14:39:15.230Z,7.487
2019-01-24T14:42:15.658Z,9.113
2019-01-24T14:45:15.184Z,8.987
2019-01-24T14:48:15.668Z,4.125
2019-01-24T14:51:15.085Z,5.863
2019-01-24T14:54:15.830Z,6.438
2019-01-24T14:57:15.384Z,5.037
2019-01-24T15:00:15.783Z,9.425
2019-01-24T15:03:14.994Z,10.338
2019-01-24T15:06:15.483Z,16.038
2019-01-24T15:09:15.914Z,20.725
2019-01-24T15:12:15.329Z,12.287
2019-01-24T15:15:15.802Z,7.162
2019-01-24T15:18:15.481Z,4.963
2019-01-24T15:21:15.176Z,10.025
2019-01-24T15:24:15.673Z,8.637
2019-01-24T15:27:15.053Z,23.413
2019-01-24T15:30:15.518Z,16.075
2019-01-24T15:33:15.163Z,13.788
2019-01-24T15:36:15.574Z,19.888
2019-01-24T15:39:15.678Z,15.775
2019-01-24T15:42:16.376Z,7.700
2019-01-24T15:45:15.896Z,5.625
2019-01-24T15:48:15.437Z,9.300
2019-01-24T15:51:15.323Z,5.675
2019-01-24T15:54:15.769Z,12.363
2019-01-24T15:57:15.330Z,13.825
2019-01-24T16:00:15.158Z,5.250
2019-01-24T16:03:15.001Z,8.562
2019-01-24T16:06:15.437Z,13.312
2019-01-24T16:09:14.948Z,7.338
2019-01-24T16:12:15.407Z,7.713
2019-01-24T16:15:15.998Z,5.213
2019-01-24T16:18:15.070Z,22.625
2019-01-24T16:21:15.475Z,11.150
2019-01-24T16:24:15.895Z,7.150
2019-01-24T16:27:15.358Z,6.088
2019-01-24T16:30:14.984Z,24.175
2019-01-24T16:33:15.471Z,12.013
2019-01-24T16:36:14.953Z,11.975
2019-01-24T16:39:15.283Z,13.650
2019-01-24T16:42:15.902Z,10.225
2019-01-24T16:45:15.321Z,5.075
2019-01-24T16:48:15.350Z,9.500
2019-01-24T16:51:15.066Z,11.712
2019-01-24T16:54:15.722Z,6.588
2019-01-24T16:57:15.085Z,8.688
2019-01-24T17:00:15.525Z,7.138
2019-01-24T17:03:16.948Z,12.475
2019-01-24T17:06:15.677Z,7.300
2019-01-24T17:09:15.268Z,7.438
2019-01-24T17:12:15.806Z,11.000
2019-01-24T17:15:15.300Z,8.888
2019-01-24T17:18:15.127Z,10.825
2019-01-24T17:21:15.614Z,7.325
2019-01-24T17:24:15.041Z,4.238
2019-01-24T17:27:15.758Z,5.675
2019-01-24T17:30:15.209Z,12.700
2019-01-24T17:33:15.015Z,12.675
2019-01-24T17:36:15.369Z,5.263
2019-01-24T17:39:15.798Z,4.825
2019-01-24T17:42:15.007Z,8.188
2019-01-24T17:45:15.462Z,12.812
2019-01-24T17:48:15.363Z,6.775
2019-01-24T17:51:15.990Z,6.425
2019-01-24T17:54:15.292Z,13.475
2019-01-24T17:57:15.635Z,5.950
2019-01-24T18:00:14.925Z,6.000
2019-01-24T18:03:15.354Z,6.137
2019-01-24T18:06:15.867Z,6.875
2019-01-24T18:09:15.809Z,5.250
2019-01-24T18:12:15.033Z,18.950
2019-01-24T18:15:15.440Z,32.650
2019-01-24T18:18:14.922Z,10.500
2019-01-24T18:21:15.328Z,24.700
2019-01-24T18:24:15.694Z,11.075
2019-01-24T18:27:15.001Z,5.362
2019-01-24T18:30:15.557Z,10.188
2019-01-24T18:33:14.933Z,10.062
2019-01-24T18:36:15.304Z,10.525
2019-01-24T18:39:15.899Z,7.400
2019-01-24T18:42:15.182Z,7.938
2019-01-24T18:45:15.629Z,17.738
2019-01-24T18:48:15.127Z,14.462
2019-01-24T18:51:15.552Z,8.725
2019-01-24T18:54:14.951Z,10.912
2019-01-24T18:57:15.476Z,9.362
2019-01-24T19:00:15.151Z,8.650
2019-01-24T19:03:15.197Z,12.462
2019-01-24T19:06:15.679Z,13.763
2019-01-24T19:09:15.029Z,15.750
2019-01-24T19:12:15.273Z,9.887
2019-01-24T19:15:15.173Z,6.412
2019-01-24T19:18:15.944Z,13.462
2019-01-24T19:21:15.337Z,11.637
2019-01-24T19:24:15.889Z,12.475
2019-01-24T19:27:15.805Z,15.012
2019-01-24T19:30:15.296Z,17.900
2019-01-24T19:33:14.925Z,17.712
2019-01-24T19:36:15.230Z,8.550
2019-01-24T19:39:15.678Z,17.575
2019-01-24T19:42:15.175Z,19.288
2019-01-24T19:45:15.826Z,20.537
2019-01-24T19:48:15.520Z,5.050
2019-01-24T19:51:14.971Z,14.325
2019-01-24T19:54:15.091Z,16.012
2019-01-24T19:57:15.591Z,8.387
2019-01-24T20:00:15.069Z,8.062
2019-01-24T20:03:15.611Z,9.825
2019-01-24T20:06:15.325Z,11.612
2019-01-24T20:09:16.145Z,48.388
2019-01-24T20:12:15.648Z,19.825
2019-01-24T20:15:15.231Z,11.788
2019-01-24T20:18:15.201Z,11.487
2019-01-24T20:21:15.903Z,3.775
2019-01-24T20:24:15.512Z,8.312
2019-01-24T20:27:15.845Z,8.200
2019-01-24T20:30:15.527Z,11.962
2019-01-24T20:33:15.642Z,6.113
2019-01-24T20:36:15.212Z,11.000
2019-01-24T20:39:15.485Z,21.825
2019-01-24T20:42:15.122Z,3.475
2019-01-24T20:45:15.727Z,12.375
2019-01-24T20:48:14.876Z,7.325
2019-01-24T20:51:15.813Z,10.213
2019-01-24T20:54:15.305Z,8.025
2019-01-24T20:57:14.944Z,12.738
2019-01-24T21:00:15.435Z,10.512
2019-01-24T21:03:15.137Z,7.500
2019-01-24T21:06:15.804Z,14.250
2019-01-24T21:09:15.309Z,9.075
2019-01-24T21:12:14.906Z,9.738
2019-01-24T21:15:15.437Z,13.050
2019-01-24T21:18:15.088Z,9.725
2019-01-24T21:21:15.228Z,6.337
2019-01-24T21:24:15.073Z,11.412
2019-01-24T21:27:15.718Z,23.163
2019-01-24T21:30:15.334Z,12.275
2019-01-24T21:33:15.209Z,5.200
2019-01-24T21:36:15.788Z,18.688
2019-01-24T21:39:21.968Z,10.325
2019-01-24T21:42:14.896Z,7.012
2019-01-24T21:45:15.450Z,14.950
2019-01-24T21:48:15.256Z,12.113
2019-01-24T21:51:15.776Z,12.475
2019-01-24T21:54:15.827Z,10.087
2019-01-24T21:57:15.372Z,12.613
2019-01-24T22:00:15.985Z,9.287
2019-01-24T22:03:15.420Z,14.962
2019-01-24T22:06:15.778Z,15.475
2019-01-24T22:09:15.568Z,14.850
2019-01-24T22:12:15.739Z,10.750
2019-01-24T22:15:15.214Z,11.400
2019-01-24T22:18:15.605Z,14.800
2019-01-24T22:21:15.249Z,10.125
2019-01-24T22:24:15.881Z,8.738
2019-01-24T22:27:15.264Z,13.475
2019-01-24T22:30:15.720Z,13.063
2019-01-24T22:33:15.632Z,16.650
2019-01-24T22:36:15.305Z,11.662
2019-01-24T22:39:14.929Z,13.050
2019-01-24T22:42:15.837Z,10.738
2019-01-24T22:45:15.158Z,15.275
2019-01-24T22:48:14.968Z,13.938
2019-01-24T22:51:15.336Z,6.400
2019-01-24T22:54:15.777Z,6.975
2019-01-24T22:57:15.136Z,6.738
2019-01-24T23:00:15.377Z,12.938
2019-01-24T23:03:14.916Z,13.225
2019-01-24T23:06:15.436Z,15.325
2019-01-24T23:09:15.883Z,8.588
2019-01-24T23:12:15.094Z,11.162
2019-01-24T23:15:15.570Z,6.875
2019-01-24T23:18:15.794Z,12.950
2019-01-24T23:21:15.142Z,8.137
2019-01-24T23:24:15.727Z,9.500
2019-01-24T23:27:15.036Z,13.400
2019-01-24T23:30:15.424Z,10.650
2019-01-24T23:33:15.314Z,10.337
2019-01-24T23:36:15.616Z,4.562
2019-01-24T23:39:15.299Z,10.275
2019-01-24T23:42:15.112Z,8.900
2019-01-24T23:45:15.588Z,11.175
2019-01-24T23:48:14.901Z,9.525
2019-01-24T23:51:15.196Z,8.325
2019-01-24T23:54:15.708Z,22.562
2019-01-24T23:57:15.104Z,12.562
